Time;durP1;ratioP1;P1;durP2;ratioP2;P2;SDS_P1;SDS_P2;PMS_P1;PMS_P2;Temp;Humidity;BMP_temperature;BMP_pressure;BME280_temperature;BME280_humidity;BME280_pressure;Samples;Min_cycle;Max_cycle;Signal;HPM_P1;HPM_P2
2022/07/19 00:02:11;;;;;;;0.30;0.30;;;;;;;;;;5060050;28;20044;-70
2022/07/19 00:04:37;;;;;;;0.10;0.10;;;;;;;;;;5084027;28;20048;-70
2022/07/19 00:07:03;;;;;;;0.20;0.20;;;;;;;;;;5086349;28;20036;-70
2022/07/19 00:09:30;;;;;;;0.10;0.10;;;;;;;;;;5081365;28;20109;-72
2022/07/19 00:11:56;;;;;;;0.30;0.30;;;;;;;;;;5085158;28;20493;-70
2022/07/19 00:14:22;;;;;;;0.20;0.20;;;;;;;;;;5075217;28;20048;-69
2022/07/19 00:16:48;;;;;;;0.20;0.20;;;;;;;;;;5092270;28;20058;-70
2022/07/19 00:19:15;;;;;;;0.20;0.20;;;;;;;;;;5083164;28;20028;-69
2022/07/19 00:21:41;;;;;;;0.30;0.30;;;;;;;;;;5087388;28;20461;-69
2022/07/19 00:24:07;;;;;;;0.20;0.20;;;;;;;;;;5082525;28;20434;-70
2022/07/19 00:26:32;;;;;;;;;;;;;;;;;;5079362;28;20624;-69
2022/07/19 00:29:00;;;;;;;0.30;0.30;;;;;;;;;;5084345;28;19958;-70
2022/07/19 00:31:27;;;;;;;0.30;0.30;;;;;;;;;;5086401;28;20056;-70
2022/07/19 00:33:54;;;;;;;0.20;0.20;;;;;;;;;;5081785;28;20048;-73
2022/07/19 00:36:20;;;;;;;0.20;0.20;;;;;;;;;;5063412;28;20056;-70
2022/07/19 00:38:46;;;;;;;;;;;;;;;;;;5084129;28;20036;-69
2022/07/19 00:41:13;;;;;;;0.20;0.20;;;;;;;;;;5074987;28;20350;-69
2022/07/19 00:43:43;;;;;;;0.22;0.22;;;;;;;;;;5083533;28;20040;-70
2022/07/19 00:46:16;;;;;;;0.15;0.15;;;;;;;;;;5077768;28;20087;-69
2022/07/19 00:48:42;;;;;;;0.20;0.20;;;;;;;;;;5085672;28;20431;-69
2022/07/19 00:51:11;;;;;;;0.35;0.35;;;;;;;;;;5074329;28;20044;-72
2022/07/19 00:53:39;;;;;;;0.30;0.30;;;;;;;;;;5083938;28;20132;-69
2022/07/19 00:56:06;;;;;;;0.20;0.20;;;;;;;;;;5071611;28;20041;-69
2022/07/19 00:58:32;;;;;;;0.15;0.15;;;;;;;;;;5055315;28;20048;-70
2022/07/19 01:00:58;;;;;;;0.17;0.17;;;17.10;99.90;;;;;;5079292;28;20121;-72
2022/07/19 01:03:25;;;;;;;0.20;0.20;;;16.90;99.90;;;;;;5078361;28;20037;-69
2022/07/19 01:05:51;;;;;;;0.30;0.30;;;16.90;99.90;;;;;;5086895;28;20044;-71
2022/07/19 01:08:17;;;;;;;0.22;0.22;;;16.80;99.90;;;;;;5076913;28;20832;-71
2022/07/19 01:10:43;;;;;;;0.20;0.20;;;16.80;99.90;;;;;;5073987;28;20068;-71
2022/07/19 01:13:11;;;;;;;;;;;16.70;99.90;;;;;;5074222;28;20071;-71
2022/07/19 01:15:39;;;;;;;0.30;0.30;;;16.70;99.90;;;;;;5078280;28;19966;-70
2022/07/19 01:18:05;;;;;;;0.30;0.30;;;16.70;99.90;;;;;;5080984;28;20115;-70
2022/07/19 01:20:32;;;;;;;;;;;16.70;99.90;;;;;;5054759;28;20115;-69
2022/07/19 01:23:00;;;;;;;0.43;0.38;;;16.60;99.90;;;;;;5071796;28;19959;-70
2022/07/19 01:25:44;;;;;;;;;;;16.60;99.90;;;;;;5071487;28;20076;-69
2022/07/19 01:28:10;;;;;;;0.22;0.22;;;16.60;99.90;;;;;;5072259;28;19993;-70
2022/07/19 01:30:36;;;;;;;;;;;16.60;99.90;;;;;;5080742;28;20045;-70
2022/07/19 01:33:02;;;;;;;0.20;0.20;;;16.50;99.90;;;;;;5073231;28;20117;-70
2022/07/19 01:35:28;;;;;;;0.20;0.20;;;16.50;99.90;;;;;;5087916;28;20454;-69
2022/07/19 01:37:55;;;;;;;0.25;0.25;;;16.40;99.90;;;;;;5070321;28;20147;-71
2022/07/19 01:40:21;;;;;;;0.20;0.20;;;16.50;99.90;;;;;;5071254;28;20075;-71
2022/07/19 01:42:48;;;;;;;0.30;0.30;;;16.40;99.90;;;;;;5070400;28;20052;-71
2022/07/19 01:45:14;;;;;;;0.17;0.17;;;16.40;99.90;;;;;;5070507;28;20036;-70
2022/07/19 01:47:41;;;;;;;0.30;0.30;;;16.40;99.90;;;;;;5072097;28;20450;-70
2022/07/19 01:50:08;;;;;;;0.20;0.20;;;16.30;99.90;;;;;;5083893;28;20044;-70
2022/07/19 01:52:34;;;;;;;0.30;0.30;;;16.30;99.90;;;;;;5069820;28;20405;-70
2022/07/19 01:55:00;;;;;;;;;;;16.20;99.90;;;;;;5069471;28;20059;-70
2022/07/19 01:57:28;;;;;;;0.30;0.30;;;16.20;99.90;;;;;;5069962;28;19926;-70
2022/07/19 01:59:54;;;;;;;0.30;0.30;;;16.20;99.90;;;;;;5071110;28;20098;-71
2022/07/19 02:02:19;;;;;;;;;;;16.20;99.90;;;;;;5085410;28;20037;-70
2022/07/19 02:04:45;;;;;;;0.20;0.20;;;16.20;99.90;;;;;;5069675;28;20296;-70
2022/07/19 02:07:11;;;;;;;;;;;16.10;99.90;;;;;;5086381;28;20036;-71
2022/07/19 02:09:36;;;;;;;0.40;0.40;;;16.10;99.90;;;;;;5086417;28;19924;-71
2022/07/19 02:12:02;;;;;;;;;;;16.10;99.90;;;;;;5076213;28;20063;-69
2022/07/19 02:14:28;;;;;;;0.20;0.20;;;16.10;99.90;;;;;;5069377;28;19935;-70
2022/07/19 02:16:53;;;;;;;0.20;0.20;;;16.10;99.90;;;;;;5071742;28;20052;-70
2022/07/19 02:19:21;;;;;;;0.20;0.20;;;16.10;99.90;;;;;;5070548;28;20037;-71
2022/07/19 02:21:47;;;;;;;0.40;0.40;;;16.10;99.90;;;;;;5074692;28;20515;-69
2022/07/19 02:24:12;;;;;;;;;;;16.10;99.90;;;;;;5079659;28;20440;-69
2022/07/19 02:26:38;;;;;;;0.20;0.20;;;16.10;99.90;;;;;;5069468;28;19920;-70
2022/07/19 02:29:04;;;;;;;;;;;16.10;99.90;;;;;;5071713;28;20386;-69
2022/07/19 02:31:29;;;;;;;0.20;0.20;;;16.10;99.90;;;;;;5069511;28;20297;-69
2022/07/19 02:33:55;;;;;;;;;;;16.10;99.90;;;;;;5082778;28;20059;-70
2022/07/19 02:36:21;;;;;;;0.20;0.20;;;16.10;99.90;;;;;;5081303;28;20369;-70
2022/07/19 02:38:46;;;;;;;0.20;0.20;;;16.00;99.90;;;;;;5069184;28;20424;-71
2022/07/19 02:41:13;;;;;;;0.20;0.20;;;16.00;99.90;;;;;;5069916;28;20044;-70
2022/07/19 02:43:39;;;;;;;0.30;0.30;;;16.00;99.90;;;;;;5072343;28;20146;-69
2022/07/19 02:46:05;;;;;;;0.20;0.20;;;16.00;99.90;;;;;;5074107;28;20041;-71
2022/07/19 02:48:31;;;;;;;;;;;16.00;99.90;;;;;;5075519;28;20052;-71
2022/07/19 02:50:57;;;;;;;0.20;0.20;;;16.00;99.90;;;;;;5074171;28;19924;-69
2022/07/19 02:53:23;;;;;;;0.30;0.30;;;15.90;99.90;;;;;;5075390;28;20052;-69
2022/07/19 02:55:48;;;;;;;;;;;15.90;99.90;;;;;;5074607;28;20040;-71
2022/07/19 02:58:14;;;;;;;0.20;0.20;;;15.90;99.90;;;;;;5076072;28;19939;-70
2022/07/19 03:00:40;;;;;;;;;;;15.90;99.90;;;;;;5077805;28;20039;-69
2022/07/19 03:05:50;;;;;;;0.28;0.28;;;15.80;99.90;;;;;;5061571;28;20485;-68
2022/07/19 03:08:15;;;;;;;;;;;15.80;99.90;;;;;;5076680;28;20120;-69
2022/07/19 03:10:41;;;;;;;0.30;0.30;;;15.80;99.90;;;;;;5075721;28;19916;-70
2022/07/19 03:13:08;;;;;;;;;;;15.80;99.90;;;;;;5073900;28;20080;-69
2022/07/19 03:15:38;;;;;;;0.10;0.10;;;15.70;99.90;;;;;;5072885;28;19924;-72
2022/07/19 03:18:04;;;;;;;0.20;0.20;;;15.70;99.90;;;;;;5075039;28;20120;-69
2022/07/19 03:20:29;;;;;;;;;;;15.70;99.90;;;;;;5075665;28;20492;-70
2022/07/19 03:22:55;;;;;;;0.30;0.30;;;15.70;99.90;;;;;;5081350;28;19920;-69
2022/07/19 03:25:21;;;;;;;;;;;15.70;99.90;;;;;;5055441;28;20452;-71
2022/07/19 03:27:48;;;;;;;0.25;0.25;;;15.70;99.90;;;;;;5073735;28;19928;-70
2022/07/19 03:30:14;;;;;;;0.30;0.30;;;15.70;99.90;;;;;;5072233;28;20392;-71
2022/07/19 03:32:40;;;;;;;0.32;0.32;;;15.70;99.90;;;;;;5073087;28;20055;-71
2022/07/19 03:35:06;;;;;;;;;;;15.60;99.90;;;;;;5075089;28;20468;-70
2022/07/19 03:37:31;;;;;;;0.30;0.30;;;15.70;99.90;;;;;;5075192;28;19916;-72
2022/07/19 03:39:57;;;;;;;0.20;0.20;;;15.60;99.90;;;;;;5073145;28;20044;-70
2022/07/19 03:42:23;;;;;;;0.20;0.20;;;15.60;99.90;;;;;;5074220;28;20028;-72
2022/07/19 03:44:48;;;;;;;;;;;15.60;99.90;;;;;;5081583;28;20115;-70
2022/07/19 03:47:14;;;;;;;0.20;0.20;;;15.70;99.90;;;;;;5078533;28;20400;-71
2022/07/19 03:49:39;;;;;;;;;;;15.70;99.90;;;;;;5073714;28;20131;-70
2022/07/19 03:52:05;;;;;;;0.40;0.40;;;15.70;99.90;;;;;;5072352;28;20027;-70
2022/07/19 03:54:31;;;;;;;;;;;15.70;99.90;;;;;;5070808;28;20057;-69
2022/07/19 03:56:56;;;;;;;0.43;0.43;;;15.70;99.90;;;;;;5077624;28;19943;-70
2022/07/19 03:59:25;;;;;;;;;;;15.70;99.90;;;;;;5085672;28;20044;-71
2022/07/19 04:01:51;;;;;;;0.40;0.40;;;15.70;99.90;;;;;;5083367;28;19920;-71
2022/07/19 04:04:22;;;;;;;0.30;0.30;;;15.80;99.90;;;;;;5084831;28;20072;-71
2022/07/19 04:06:48;;;;;;;0.25;0.25;;;15.80;99.90;;;;;;5074315;28;20040;-70
2022/07/19 04:09:14;;;;;;;;;;;15.80;99.90;;;;;;5079432;28;20058;-69
2022/07/19 04:11:42;;;;;;;0.30;0.30;;;15.90;99.90;;;;;;5071585;28;19923;-69
2022/07/19 04:14:08;;;;;;;;;;;15.90;99.90;;;;;;5086131;28;20400;-69
2022/07/19 04:16:34;;;;;;;0.25;0.25;;;15.90;99.90;;;;;;5073103;28;20374;-71
2022/07/19 04:18:59;;;;;;;;;;;16.00;99.90;;;;;;5079436;28;20036;-70
2022/07/19 04:21:25;;;;;;;0.30;0.30;;;16.00;99.90;;;;;;5073224;28;19917;-70
2022/07/19 04:23:50;;;;;;;;;;;16.10;99.90;;;;;;5073013;28;20043;-70
2022/07/19 04:26:16;;;;;;;0.35;0.35;;;16.20;99.90;;;;;;5071287;28;19964;-70
2022/07/19 04:28:42;;;;;;;0.30;0.30;;;16.20;99.90;;;;;;5077970;28;20093;-70
2022/07/19 04:31:07;;;;;;;;;;;16.30;99.90;;;;;;5092259;28;20058;-69
2022/07/19 04:33:33;;;;;;;0.20;0.20;;;16.40;99.90;;;;;;5080249;28;19916;-69
2022/07/19 04:35:58;;;;;;;0.20;0.20;;;16.40;99.90;;;;;;5086927;28;20076;-70
2022/07/19 04:38:24;;;;;;;;;;;16.50;99.90;;;;;;5073421;28;20043;-69
2022/07/19 04:40:50;;;;;;;0.20;0.20;;;16.50;99.90;;;;;;5072335;28;19965;-69
2022/07/19 04:43:16;;;;;;;;;;;16.60;99.90;;;;;;5072168;28;20397;-70
2022/07/19 04:45:42;;;;;;;0.30;0.30;;;16.70;99.90;;;;;;5072870;28;19916;-69
2022/07/19 04:48:07;;;;;;;;;;;16.90;99.90;;;;;;5073447;28;20044;-70
2022/07/19 04:50:36;;;;;;;0.20;0.20;;;17.00;99.90;;;;;;5072102;28;19916;-70
2022/07/19 04:53:02;;;;;;;;;;;17.10;99.90;;;;;;5073027;28;20037;-69
2022/07/19 04:55:27;;;;;;;0.20;0.20;;;17.20;99.90;;;;;;5055143;28;20327;-69
2022/07/19 04:57:53;;;;;;;;;;;17.30;99.90;;;;;;5092874;28;20036;-69
2022/07/19 05:00:19;;;;;;;0.28;0.28;;;17.40;99.90;;;;;;5077539;28;20008;-69
2022/07/19 05:02:44;;;;;;;;;;;17.60;99.90;;;;;;5054516;28;20045;-69
2022/07/19 05:05:11;;;;;;;0.32;0.32;;;17.70;99.90;;;;;;5074553;28;19928;-69
2022/07/19 05:07:37;;;;;;;0.30;0.30;;;17.90;99.90;;;;;;5079236;28;20128;-69
2022/07/19 05:10:03;;;;;;;;;;;18.10;99.90;;;;;;5082715;28;20081;-69
2022/07/19 05:12:29;;;;;;;0.30;0.30;;;18.20;99.90;;;;;;5089988;28;19923;-69
2022/07/19 05:14:54;;;;;;;;;;;18.30;99.90;;;;;;5092503;28;20519;-70
2022/07/19 05:17:21;;;;;;;0.38;0.35;;;18.50;99.90;;;;;;5092471;28;19916;-69
2022/07/19 05:19:46;;;;;;;0.20;0.20;;;18.60;99.90;;;;;;5083639;28;20428;-70
2022/07/19 05:22:12;;;;;;;;;;;18.70;99.90;;;;;;5089325;28;20043;-68
2022/07/19 05:24:38;;;;;;;0.20;0.20;;;18.80;99.90;;;;;;5072577;28;20002;-69
2022/07/19 05:27:03;;;;;;;0.28;0.28;;;18.90;99.90;;;;;;5073027;28;20170;-70
2022/07/19 05:29:29;;;;;;;;;;;19.00;99.90;;;;;;5078701;28;20490;-69
2022/07/19 05:31:55;;;;;;;0.20;0.20;;;19.10;99.90;;;;;;5077820;28;20005;-69
2022/07/19 05:34:20;;;;;;;;;;;19.30;99.90;;;;;;5076899;28;20052;-69
2022/07/19 05:36:46;;;;;;;0.20;0.20;;;19.40;99.90;;;;;;5072566;28;19920;-68
2022/07/19 05:39:11;;;;;;;;;;;19.50;99.90;;;;;;5074946;28;20032;-70
2022/07/19 05:41:37;;;;;;;0.20;0.20;;;19.60;99.90;;;;;;5080431;28;19920;-70
2022/07/19 05:44:03;;;;;;;;;;;19.70;99.90;;;;;;5084779;28;20040;-71
2022/07/19 05:46:28;;;;;;;0.20;0.20;;;19.80;99.90;;;;;;5072872;28;19944;-70
2022/07/19 05:48:54;;;;;;;;;;;20.10;99.90;;;;;;5065695;28;20033;-72
2022/07/19 05:51:19;;;;;;;0.20;0.20;;;20.30;99.90;;;;;;5072907;28;19924;-77
2022/07/19 05:53:45;;;;;;;;;;;20.20;99.90;;;;;;5083127;28;20493;-71
2022/07/19 05:56:11;;;;;;;0.45;0.45;;;20.40;99.90;;;;;;5078738;28;19924;-72
2022/07/19 05:58:36;;;;;;;;;;;20.60;99.90;;;;;;5073239;28;20062;-73
2022/07/19 06:01:19;;;;;;;0.25;0.22;;;20.80;99.90;;;;;;5073395;28;20338;-73
2022/07/19 06:03:53;;;;;;;0.20;0.20;;;20.90;99.90;;;;;;5068586;28;20385;-71
2022/07/19 06:06:20;;;;;;;0.10;0.10;;;20.90;99.90;;;;;;5070214;28;20075;-72
2022/07/19 06:08:47;;;;;;;0.10;0.10;;;21.00;99.90;;;;;;5078419;28;20043;-70
2022/07/19 06:11:13;;;;;;;0.30;0.30;;;21.20;99.90;;;;;;5069715;28;20033;-71
2022/07/19 06:13:39;;;;;;;0.22;0.22;;;21.30;99.90;;;;;;5080728;28;20062;-70
2022/07/19 06:16:06;;;;;;;0.25;0.25;;;21.50;99.90;;;;;;5074293;28;20751;-69
2022/07/19 06:18:36;;;;;;;0.30;0.30;;;21.60;99.90;;;;;;5065117;28;20055;-70
2022/07/19 06:21:04;;;;;;;0.30;0.30;;;21.70;99.90;;;;;;5073854;28;20036;-70
2022/07/19 06:23:30;;;;;;;0.20;0.20;;;21.80;99.90;;;;;;5072826;28;20056;-72
2022/07/19 06:25:56;;;;;;;0.20;0.20;;;21.90;99.90;;;;;;5071977;28;20044;-72
2022/07/19 06:28:22;;;;;;;0.20;0.20;;;22.00;99.90;;;;;;5068279;28;20122;-73
2022/07/19 06:30:48;;;;;;;0.68;0.30;;;22.20;99.90;;;;;;5076729;28;20545;-71
2022/07/19 06:33:13;;;;;;;0.25;0.25;;;22.20;99.90;;;;;;5076016;28;20041;-70
2022/07/19 06:35:40;;;;;;;0.20;0.20;;;22.40;99.90;;;;;;5073815;28;20378;-73
2022/07/19 06:38:07;;;;;;;0.20;0.20;;;22.50;99.90;;;;;;5079607;28;20052;-71
2022/07/19 06:40:32;;;;;;;0.25;0.25;;;22.70;99.90;;;;;;5074194;28;20127;-73
2022/07/19 06:42:58;;;;;;;0.95;0.63;;;22.70;99.90;;;;;;5109586;28;20090;-70
2022/07/19 06:45:24;;;;;;;0.20;0.20;;;22.90;99.90;;;;;;5100021;28;20206;-73
2022/07/19 06:47:51;;;;;;;0.10;0.10;;;23.00;99.90;;;;;;5100948;28;20020;-71
2022/07/19 06:50:17;;;;;;;0.50;0.50;;;23.20;99.90;;;;;;5096503;28;20055;-73
2022/07/19 06:52:43;;;;;;;0.40;0.40;;;23.20;99.90;;;;;;5088124;28;20298;-70
2022/07/19 06:55:12;;;;;;;0.20;0.20;;;23.30;99.90;;;;;;5077036;28;20048;-72
2022/07/19 06:57:38;;;;;;;0.50;0.50;;;23.60;99.90;;;;;;5073619;28;20048;-70
2022/07/19 07:00:07;;;;;;;0.28;0.28;;;23.60;99.90;;;;;;5075455;28;20101;-72
2022/07/19 07:02:35;;;;;;;0.30;0.30;;;23.80;99.90;;;;;;5068720;28;20050;-72
2022/07/19 07:05:00;;;;;;;0.50;0.50;;;23.90;99.90;;;;;;5065577;28;20068;-75
2022/07/19 07:07:26;;;;;;;1.08;0.75;;;24.00;99.90;;;;;;5079224;28;20131;-71
2022/07/19 07:09:52;;;;;;;0.30;0.30;;;24.00;99.90;;;;;;5083429;28;20434;-71
2022/07/19 07:12:17;;;;;;;0.50;0.50;;;24.10;99.90;;;;;;5066231;28;20050;-73
2022/07/19 07:14:43;;;;;;;0.20;0.20;;;24.30;99.90;;;;;;5074091;28;20060;-72
2022/07/19 07:17:09;;;;;;;0.30;0.30;;;24.40;99.90;;;;;;5075246;28;20052;-71
2022/07/19 07:19:35;;;;;;;0.30;0.30;;;24.60;99.90;;;;;;5083629;28;20044;-70
2022/07/19 07:22:01;;;;;;;0.28;0.28;;;24.60;99.90;;;;;;5066988;28;20040;-71
2022/07/19 07:24:27;;;;;;;0.30;0.30;;;24.70;99.90;;;;;;5071970;28;20044;-73
2022/07/19 07:26:53;;;;;;;0.52;0.40;;;24.80;99.90;;;;;;5068636;28;20071;-72
2022/07/19 07:29:19;;;;;;;0.30;0.30;;;25.60;99.90;;;;;;5081873;28;20048;-72
2022/07/19 07:31:45;;;;;;;0.70;0.65;;;25.00;99.90;;;;;;5075614;28;20093;-71
2022/07/19 07:34:11;;;;;;;0.20;0.20;;;25.00;99.90;;;;;;5080542;28;20071;-71
2022/07/19 07:36:37;;;;;;;0.30;0.30;;;25.00;99.90;;;;;;5069794;28;20130;-75
2022/07/19 07:39:03;;;;;;;0.20;0.20;;;25.30;99.90;;;;;;5083857;28;20062;-74
2022/07/19 07:41:29;;;;;;;0.30;0.30;;;25.40;99.90;;;;;;5081548;28;20040;-71
2022/07/19 07:43:54;;;;;;;0.30;0.30;;;25.50;99.90;;;;;;5071493;28;20044;-72
2022/07/19 07:46:20;;;;;;;0.20;0.20;;;25.60;99.90;;;;;;5064319;28;20136;-72
2022/07/19 07:48:46;;;;;;;0.43;0.32;;;25.70;99.90;;;;;;5070111;28;20131;-72
2022/07/19 07:51:11;;;;;;;0.30;0.30;;;25.80;99.90;;;;;;5072655;28;20457;-75
2022/07/19 07:53:37;;;;;;;0.65;0.65;;;25.90;99.90;;;;;;5081880;28;20477;-72
2022/07/19 07:56:03;;;;;;;0.30;0.30;;;26.00;99.90;;;;;;5068757;28;20048;-71
2022/07/19 07:58:29;;;;;;;0.35;0.35;;;26.10;99.90;;;;;;5083871;28;20539;-72
2022/07/19 08:00:55;;;;;;;0.77;0.77;;;26.30;99.90;;;;;;5078854;28;20032;-72
2022/07/19 08:03:20;;;;;;;0.60;0.60;;;26.30;99.90;;;;;;5076017;28;20101;-73
2022/07/19 08:05:48;;;;;;;0.20;0.20;;;26.40;99.90;;;;;;5056912;28;20054;-73
2022/07/19 08:08:17;;;;;;;0.47;0.40;;;26.50;99.90;;;;;;5079509;28;20051;-71
2022/07/19 08:10:44;;;;;;;0.28;0.28;;;26.60;99.90;;;;;;5074352;28;20067;-73
2022/07/19 08:13:09;;;;;;;0.30;0.30;;;26.70;99.90;;;;;;5078148;28;20041;-71
2022/07/19 08:15:36;;;;;;;0.30;0.30;;;26.80;99.90;;;;;;5075859;28;20052;-70
2022/07/19 08:18:02;;;;;;;0.20;0.20;;;26.90;99.90;;;;;;5071421;28;20045;-70
2022/07/19 08:20:28;;;;;;;0.20;0.20;;;26.90;99.90;;;;;;5079455;28;20579;-68
2022/07/19 08:22:53;;;;;;;0.40;0.40;;;27.00;99.90;;;;;;5069930;28;20110;-72
2022/07/19 08:25:19;;;;;;;0.20;0.20;;;27.10;99.90;;;;;;5081925;28;20047;-73
2022/07/19 08:27:45;;;;;;;0.50;0.50;;;27.20;99.90;;;;;;5076333;28;20052;-70
2022/07/19 08:30:11;;;;;;;0.20;0.20;;;27.30;99.90;;;;;;5085006;28;20047;-72
2022/07/19 08:32:40;;;;;;;0.20;0.20;;;27.50;99.90;;;;;;5088030;28;20912;-72
2022/07/19 08:35:07;;;;;;;0.20;0.20;;;27.60;99.90;;;;;;5072349;28;20044;-72
2022/07/19 08:37:34;;;;;;;0.30;0.30;;;27.70;99.90;;;;;;5084917;28;20043;-71
2022/07/19 08:40:00;;;;;;;0.20;0.20;;;27.80;99.90;;;;;;5072036;28;20102;-71
2022/07/19 08:42:26;;;;;;;0.20;0.20;;;27.90;99.90;;;;;;5068814;28;20079;-70
2022/07/19 08:44:52;;;;;;;0.20;0.20;;;28.10;99.90;;;;;;5076688;28;20028;-71
2022/07/19 08:47:20;;;;;;;0.55;0.55;;;28.10;97.30;;;;;;5070054;28;20361;-73
2022/07/19 08:49:46;;;;;;;0.55;0.55;;;28.30;99.00;;;;;;5059808;28;20036;-72
2022/07/19 08:52:12;;;;;;;0.22;0.22;;;28.40;98.80;;;;;;5071284;28;20372;-71
2022/07/19 08:54:38;;;;;;;0.80;0.80;;;28.50;97.00;;;;;;5066934;28;20101;-71
2022/07/19 08:59:49;;;;;;;0.35;0.35;;;28.70;94.40;;;;;;5072217;28;20628;-72
2022/07/19 09:02:15;;;;;;;0.30;0.30;;;28.80;97.20;;;;;;5074976;28;20071;-72
2022/07/19 09:04:41;;;;;;;0.20;0.20;;;28.90;93.50;;;;;;5075180;28;20048;-72
2022/07/19 09:07:07;;;;;;;0.20;0.20;;;29.00;91.30;;;;;;5086323;28;20044;-73
2022/07/19 09:09:35;;;;;;;0.30;0.30;;;29.00;93.20;;;;;;5075553;28;20040;-73
2022/07/19 09:12:02;;;;;;;0.22;0.22;;;29.10;94.40;;;;;;5080177;28;20039;-72
2022/07/19 09:14:28;;;;;;;0.22;0.22;;;29.20;91.60;;;;;;5068471;28;20106;-73
2022/07/19 09:17:16;;;;;;;0.20;0.20;;;29.30;90.90;;;;;;5081594;28;20064;-75
2022/07/19 09:19:47;;;;;;;0.25;0.25;;;29.50;93.20;;;;;;5067695;28;20133;-73
2022/07/19 09:22:20;;;;;;;0.30;0.30;;;29.60;91.90;;;;;;5075780;28;20052;-73
2022/07/19 09:24:50;;;;;;;0.32;0.32;;;29.90;90.00;;;;;;5080664;28;20127;-73
2022/07/19 09:27:22;;;;;;;0.77;0.52;;;29.90;91.80;;;;;;5075925;28;20087;-72
2022/07/19 09:29:54;;;;;;;0.30;0.30;;;29.90;92.20;;;;;;5070358;28;20397;-73
2022/07/19 09:32:21;;;;;;;0.17;0.17;;;29.90;90.90;;;;;;5071743;28;20121;-72
2022/07/19 09:35:01;;;;;;;0.20;0.20;;;29.90;90.40;;;;;;5078493;28;20048;-73
2022/07/19 09:37:32;;;;;;;0.20;0.20;;;30.00;87.40;;;;;;5084481;28;20559;-73
2022/07/19 09:40:07;;;;;;;0.20;0.20;;;30.20;87.40;;;;;;5073069;28;20644;-73
2022/07/19 09:42:41;;;;;;;0.63;0.63;;;30.20;84.10;;;;;;5069831;28;20044;-70
2022/07/19 09:45:10;;;;;;;0.30;0.30;;;30.30;86.30;;;;;;5071347;28;20048;-72
2022/07/19 09:47:38;;;;;;;0.17;0.17;;;30.40;81.00;;;;;;5079353;28;20139;-71
2022/07/19 09:50:14;;;;;;;0.50;0.50;;;30.50;81.90;;;;;;5059288;28;20098;-71
2022/07/19 09:52:40;;;;;;;;;;;30.50;78.00;;;;;;5070056;28;20041;-72
2022/07/19 09:55:07;;;;;;;0.30;0.30;;;30.50;82.90;;;;;;5067022;28;19923;-71
2022/07/19 09:57:36;;;;;;;0.65;0.55;;;30.60;81.50;;;;;;5071285;28;20119;-70
2022/07/19 10:00:04;;;;;;;0.47;0.40;;;30.70;80.20;;;;;;5082033;28;20044;-71
2022/07/19 10:02:35;;;;;;;0.20;0.20;;;30.80;74.30;;;;;;5069163;28;20109;-72
2022/07/19 10:05:05;;;;;;;0.22;0.22;;;30.90;76.80;;;;;;5068718;28;20083;-73
2022/07/19 10:07:31;;;;;;;0.47;0.43;;;30.90;79.20;;;;;;5072903;28;20051;-71
2022/07/19 10:10:01;;;;;;;0.22;0.17;;;31.00;72.40;;;;;;5070728;28;20052;-71
2022/07/19 10:12:28;;;;;;;0.85;0.55;;;31.00;76.50;;;;;;5077782;28;20048;-72
2022/07/19 10:14:55;;;;;;;0.70;0.70;;;30.50;73.10;;;;;;5081487;28;20091;-72
2022/07/19 10:17:56;;;;;;;0.20;0.20;;;31.30;77.00;;;;;;5070362;28;20044;-74
2022/07/19 10:20:25;;;;;;;0.43;0.43;;;31.40;75.10;;;;;;5045052;28;20051;-70
2022/07/19 10:22:51;;;;;;;0.32;0.20;;;31.50;72.60;;;;;;5085245;28;20024;-70
2022/07/19 10:25:17;;;;;;;0.00;0.00;;;31.60;72.10;;;;;;5096034;28;20693;-71
2022/07/19 10:27:50;;;;;;;0.40;0.40;;;31.60;69.50;;;;;;5068577;28;20044;-70
2022/07/19 10:30:24;;;;;;;0.20;0.20;;;31.60;70.20;;;;;;5086435;28;20052;-71
2022/07/19 10:32:52;;;;;;;0.10;0.10;;;31.60;70.30;;;;;;5082437;28;20048;-69
2022/07/19 10:35:25;;;;;;;0.10;0.10;;;31.70;70.20;;;;;;5070659;28;20036;-70
2022/07/19 10:38:05;;;;;;;0.17;0.17;;;31.80;70.10;;;;;;5089896;28;20452;-72
2022/07/19 10:40:56;;;;;;;0.10;0.10;;;31.90;71.10;;;;;;5067751;28;20400;-71
2022/07/19 10:43:25;;;;;;;0.10;0.10;;;32.00;68.80;;;;;;5073208;28;20082;-70
2022/07/19 10:45:57;;;;;;;0.22;0.22;;;32.20;66.80;;;;;;5076610;28;20481;-70
2022/07/19 10:48:38;;;;;;;0.25;0.25;;;32.30;67.20;;;;;;5081735;28;20094;-72
2022/07/19 10:51:05;;;;;;;0.10;0.10;;;32.30;69.30;;;;;;5070201;28;20041;-71
2022/07/19 10:53:40;;;;;;;0.20;0.20;;;32.40;65.70;;;;;;5056521;28;20053;-72
2022/07/19 10:56:20;;;;;;;0.23;0.17;;;32.50;69.40;;;;;;5076085;28;20488;-74
2022/07/19 10:58:51;;;;;;;0.30;0.30;;;32.70;66.30;;;;;;5084423;28;20039;-73
2022/07/19 11:01:18;;;;;;;0.10;0.10;;;32.80;69.80;;;;;;5075116;28;20100;-72
2022/07/19 11:03:48;;;;;;;1.27;0.30;;;32.90;65.50;;;;;;5075451;28;20048;-73
2022/07/19 11:06:21;;;;;;;0.20;0.20;;;33.00;65.40;;;;;;5079490;28;20044;-73
2022/07/19 11:08:47;;;;;;;0.82;0.52;;;33.00;65.20;;;;;;5075370;28;20344;-71
2022/07/19 11:11:18;;;;;;;0.20;0.20;;;33.00;62.60;;;;;;5080345;28;20077;-73
2022/07/19 11:13:49;;;;;;;0.38;0.38;;;33.00;64.70;;;;;;5055753;28;20049;-75
2022/07/19 11:16:16;;;;;;;0.17;0.17;;;33.10;62.10;;;;;;5068741;28;20048;-73
2022/07/19 11:18:43;;;;;;;0.20;0.20;;;33.10;60.70;;;;;;5082854;28;20061;-74
2022/07/19 11:21:10;;;;;;;0.25;0.25;;;33.10;63.00;;;;;;5044541;28;20111;-73
2022/07/19 11:23:38;;;;;;;0.55;0.45;;;33.40;63.20;;;;;;5072162;28;20044;-73
2022/07/19 11:26:22;;;;;;;0.70;0.28;;;33.50;63.10;;;;;;5078749;28;20048;-74
2022/07/19 11:28:50;;;;;;;0.20;0.20;;;33.60;62.10;;;;;;5088551;28;20044;-73
2022/07/19 11:31:24;;;;;;;1.02;0.98;;;33.80;58.10;;;;;;5063561;28;20097;-72
2022/07/19 11:33:56;;;;;;;0.20;0.20;;;33.90;62.00;;;;;;5058056;28;20479;-72
2022/07/19 11:36:22;;;;;;;0.10;0.10;;;34.10;60.20;;;;;;5079891;28;20048;-72
2022/07/19 11:38:51;;;;;;;0.30;0.30;;;34.10;57.40;;;;;;5079317;28;20490;-71
2022/07/19 11:41:19;;;;;;;0.10;0.10;;;34.10;60.40;;;;;;5075730;28;20127;-72
2022/07/19 11:44:06;;;;;;;0.55;0.55;;;34.10;57.70;;;;;;5061684;28;20052;-74
2022/07/19 11:46:37;;;;;;;0.10;0.10;;;34.30;59.00;;;;;;5074941;28;20437;-71
2022/07/19 11:49:05;;;;;;;0.20;0.20;;;34.30;57.80;;;;;;5084120;28;20040;-72
2022/07/19 11:51:31;;;;;;;0.13;0.13;;;34.50;58.30;;;;;;5087635;28;20055;-71
2022/07/19 11:53:59;;;;;;;0.13;0.13;;;34.60;54.80;;;;;;5078011;28;20074;-72
2022/07/19 11:56:27;;;;;;;0.30;0.15;;;34.70;57.10;;;;;;5069744;28;20045;-72
2022/07/19 11:58:54;;;;;;;0.13;0.13;;;34.80;58.60;;;;;;5072427;28;20044;-71
2022/07/19 12:01:35;;;;;;;0.28;0.28;;;35.00;58.50;;;;;;5069252;28;20399;-71
2022/07/19 12:04:04;;;;;;;0.20;0.20;;;35.20;56.90;;;;;;5068189;28;20451;-72
2022/07/19 12:06:42;;;;;;;2.08;0.22;;;35.20;57.70;;;;;;5075525;28;20173;-71
2022/07/19 12:09:28;;;;;;;0.20;0.20;;;35.30;57.20;;;;;;5080759;28;20398;-72
2022/07/19 12:11:55;;;;;;;0.30;0.30;;;35.40;56.70;;;;;;5079044;28;20056;-72
2022/07/19 12:14:29;;;;;;;4.93;0.40;;;35.40;53.60;;;;;;5089151;28;20565;-76
2022/07/19 12:17:12;;;;;;;0.20;0.20;;;35.40;51.20;;;;;;5076714;28;20391;-72
2022/07/19 12:19:39;;;;;;;0.22;0.22;;;35.90;56.40;;;;;;5058705;28;20075;-71
2022/07/19 12:22:06;;;;;;;0.20;0.20;;;35.40;54.10;;;;;;5077876;28;20072;-73
2022/07/19 12:24:42;;;;;;;0.30;0.30;;;35.60;53.60;;;;;;5068900;28;20442;-72
2022/07/19 12:27:09;;;;;;;0.50;0.32;;;35.70;53.10;;;;;;5075708;28;20039;-74
2022/07/19 12:29:40;;;;;;;0.10;0.10;;;35.80;54.60;;;;;;5058551;28;20089;-70
2022/07/19 12:32:14;;;;;;;0.03;0.03;;;36.00;53.10;;;;;;5078152;28;20144;-73
2022/07/19 12:34:59;;;;;;;0.63;0.63;;;36.20;55.60;;;;;;5082786;28;20059;-72
2022/07/19 12:37:36;;;;;;;0.15;0.15;;;36.40;55.20;;;;;;5089739;28;20052;-70
2022/07/19 12:40:17;;;;;;;0.13;0.13;;;36.50;55.10;;;;;;5074883;28;20121;-71
2022/07/19 12:42:59;;;;;;;0.08;0.08;;;36.70;52.90;;;;;;5077341;28;20728;-73
2022/07/19 12:45:27;;;;;;;0.20;0.20;;;36.50;53.60;;;;;;5080983;28;20048;-71
2022/07/19 12:47:53;;;;;;;0.15;0.15;;;37.10;56.70;;;;;;5072826;28;20028;-71
2022/07/19 12:50:21;;;;;;;1.20;0.45;;;37.20;53.60;;;;;;5069213;28;20040;-74
2022/07/19 12:52:47;;;;;;;0.40;0.40;;;37.30;54.60;;;;;;5076632;28;20170;-70
2022/07/19 12:55:13;;;;;;;0.20;0.20;;;37.40;53.00;;;;;;5075521;28;20134;-71
2022/07/19 12:57:39;;;;;;;0.40;0.40;;;37.50;55.40;;;;;;5072842;28;20036;-70
2022/07/19 13:00:05;;;;;;;2.05;0.65;;;37.60;52.10;;;;;;5078443;28;20181;-73
2022/07/19 13:02:31;;;;;;;0.28;0.25;;;37.70;55.60;;;;;;5074393;28;20040;-71
2022/07/19 13:04:57;;;;;;;0.20;0.20;;;37.80;54.20;;;;;;5073296;28;20620;-72
2022/07/19 13:07:22;;;;;;;1.13;0.30;;;37.90;53.10;;;;;;5070913;28;20105;-72
2022/07/19 13:09:48;;;;;;;0.20;0.20;;;38.00;49.50;;;;;;5073692;28;20134;-71
2022/07/19 13:12:14;;;;;;;0.20;0.20;;;38.10;51.90;;;;;;5081205;28;20037;-70
2022/07/19 13:14:40;;;;;;;0.10;0.10;;;38.20;52.40;;;;;;5075172;28;20104;-71
2022/07/19 13:17:10;;;;;;;0.20;0.20;;;38.50;47.80;;;;;;5072357;28;20596;-70